Avondale, Pennsylvania
Current Conditions -  °F | °C
As of 9:15 AM on Sunday 25 Jan 2015 (Local Time) from KMQS Reporting Station
Scattered Clouds Scattered Clouds  
Wind Chill: 35°   Ceiling: Unl
Heat Index: 39°   Visibility: 10mi
Dew Point: 32°   Wind: 6mph
Humidity: 75%   Direction: 240°WSW
Pressure: 29.77"   Gusts: NA
Location:  39.82°N, 75.78°W
Report Text: KMQS 251415Z AUTO 24005KT 10SM SCT070 04/00 A2977 RMK AO2
Loading
Personal Weather Stations






























Interactive Weather Map New forecast layout! Learn more

10-Day Weather Forecast

Advertisements
Track Severe Weather on mobile